»·PEaware :: N310LD KRNO-KLKV

N310LD :: KRNO-KLKV

FLIGHT INFORMATION

Flight Status: Arrived
Operator: Privately registered:
United States
More flights under this callsign
Pilot: Slade E. (12022)
Aircraft: CESSNA 310
(C310)
More flights by this aircraft type
Origin: KRNO Reno/Tahoe Intl
United States
Destination: KLKV Lake Co
United States
More flights between these airports :: More routes between these airports
Route: FMG8 FMG T274 FASAB
File this flight plan on PilotEdge
Remarks:
Altitude:
(Current/Filed)
12,000ft
Speed:
(Current/Filed)
200kts
Departed: 24-Nov-20 10:10 AM
Arrived: 24-Nov-20 11:26 AM
Distance/Time
Traveled:
162nm/1:15
Distance/Time
To Go:
Arrived

Flight Plot

Page will automatically refresh every two minutes.

Flight plan parsing failed; only flown route is shown


Map Options




Map Legend


Flown Route
Filed Route
Departure Airport
Arrival Airport
Navaid (VOR, NDB)
Fix

Horizontal Profiles

Position Reports

Time Latitude Longitude Heading Altitude Ground
Speed
24-Nov-20 09:51 39.498793 -119.764804 268 4418ft 0kts
24-Nov-20 09:52 39.498793 -119.764804 268 4418ft 0kts
24-Nov-20 09:53 39.498793 -119.764804 268 4418ft 0kts
24-Nov-20 09:54 39.498793 -119.764804 268 4418ft 0kts
24-Nov-20 09:55 39.498793 -119.764804 268 4418ft 0kts
24-Nov-20 09:56 39.498793 -119.764804 268 4418ft 0kts
24-Nov-20 09:57 39.498793 -119.764804 268 4418ft 0kts
24-Nov-20 09:58 39.498793 -119.764804 268 4418ft 0kts
24-Nov-20 09:59 39.498793 -119.764804 268 4418ft 0kts
24-Nov-20 10:00 39.498793 -119.764804 268 4418ft 0kts
24-Nov-20 10:01 39.498793 -119.764804 268 4418ft 0kts
24-Nov-20 10:02 39.498806 -119.765008 291 4418ft 0kts
24-Nov-20 10:03 39.500966 -119.765615 330 4418ft 10kts
24-Nov-20 10:04 39.504248 -119.765712 0 4418ft 13kts
24-Nov-20 10:05 39.508378 -119.765695 0 4418ft 15kts
24-Nov-20 10:06 39.511338 -119.765190 1 4418ft 14kts
24-Nov-20 10:07 39.513655 -119.765436 296 4418ft 0kts
24-Nov-20 10:08 39.513680 -119.765611 274 4418ft 5kts
24-Nov-20 10:09 39.505082 -119.766701 178 4453ft 108kts
24-Nov-20 10:10 39.472139 -119.767255 178 5800ft 124kts
24-Nov-20 10:11 39.436835 -119.763763 174 7069ft 131kts
24-Nov-20 10:12 39.428875 -119.730589 27 8136ft 145kts
24-Nov-20 10:13 39.463970 -119.706574 30 9222ft 144kts
24-Nov-20 10:14 39.498415 -119.677386 29 10437ft 151kts
24-Nov-20 10:15 39.536990 -119.659454 342 11557ft 147kts
24-Nov-20 10:16 39.581124 -119.671144 338 11894ft 181kts
24-Nov-20 10:17 39.631029 -119.685104 341 11758ft 183kts
24-Nov-20 10:18 39.682233 -119.700236 341 11816ft 197kts
24-Nov-20 10:19 39.736932 -119.715127 341 11857ft 203kts
24-Nov-20 10:20 39.792085 -119.731187 342 11887ft 205kts
24-Nov-20 10:21 39.848230 -119.743950 343 11933ft 205kts
24-Nov-20 10:22 39.904941 -119.759439 340 11836ft 207kts
24-Nov-20 10:23 39.960924 -119.777230 339 11769ft 207kts
24-Nov-20 10:24 40.016667 -119.793521 341 11818ft 206kts
24-Nov-20 10:25 40.073170 -119.807304 343 11846ft 207kts
24-Nov-20 10:26 40.129820 -119.820934 348 11849ft 209kts
24-Nov-20 10:27 40.187460 -119.827247 349 11860ft 208kts
24-Nov-20 10:28 40.245243 -119.834886 343 11820ft 208kts
24-Nov-20 10:29 40.302755 -119.844187 347 11807ft 208kts
24-Nov-20 10:30 40.358462 -119.851852 351 11979ft 189kts
24-Nov-20 10:31 40.409613 -119.858665 354 11995ft 183kts
24-Nov-20 10:32 40.460006 -119.865424 354 11995ft 182kts
24-Nov-20 10:33 40.510144 -119.872189 354 11994ft 181kts
24-Nov-20 10:34 40.560378 -119.878989 354 11992ft 181kts
24-Nov-20 10:36 40.610594 -119.885790 354 11992ft 181kts
24-Nov-20 10:37 40.660759 -119.892595 353 11991ft 181kts
24-Nov-20 10:38 40.710951 -119.899412 353 11990ft 181kts
24-Nov-20 10:39 40.761148 -119.906241 353 11990ft 181kts
24-Nov-20 10:40 40.811375 -119.913085 353 11989ft 181kts
24-Nov-20 10:41 40.861402 -119.919915 353 11988ft 181kts
24-Nov-20 10:42 40.911650 -119.926784 353 11987ft 181kts
24-Nov-20 10:43 40.962013 -119.933673 353 11985ft 181kts
24-Nov-20 10:44 41.012140 -119.940553 353 11983ft 181kts
24-Nov-20 10:45 41.062366 -119.947455 353 11982ft 182kts
24-Nov-20 10:46 41.112641 -119.954459 352 11981ft 182kts
24-Nov-20 10:47 41.163314 -119.961623 352 11979ft 183kts
24-Nov-20 10:48 41.214047 -119.968810 352 11979ft 183kts
24-Nov-20 10:49 41.264605 -119.975985 352 11977ft 183kts
24-Nov-20 10:49 41.306823 -119.981984 352 11977ft 183kts
24-Nov-20 10:51 41.365991 -119.990406 352 11976ft 183kts
24-Nov-20 10:52 41.416732 -119.997640 352 11976ft 183kts
24-Nov-20 10:52 41.455946 -120.017173 332 11976ft 183kts
24-Nov-20 10:54 41.508058 -120.055166 331 11974ft 183kts
24-Nov-20 10:54 41.545195 -120.082606 331 11974ft 183kts
24-Nov-20 10:56 41.597252 -120.121151 331 11974ft 183kts
24-Nov-20 10:56 41.634390 -120.148693 331 11975ft 183kts
24-Nov-20 10:58 41.686298 -120.187257 331 11975ft 183kts
24-Nov-20 10:58 41.723342 -120.214813 331 11975ft 183kts
24-Nov-20 10:59 41.767916 -120.248026 331 11976ft 183kts
24-Nov-20 11:00 41.812309 -120.281158 331 11977ft 183kts
24-Nov-20 11:01 41.856877 -120.314476 331 11977ft 183kts
24-Nov-20 11:02 41.902470 -120.343594 350 11981ft 184kts
24-Nov-20 11:03 41.953595 -120.349477 353 11979ft 184kts
24-Nov-20 11:04 42.004454 -120.354916 353 12016ft 184kts
24-Nov-20 11:05 42.056013 -120.360416 353 11614ft 185kts
24-Nov-20 11:06 42.107382 -120.365936 353 11110ft 187kts
24-Nov-20 11:07 42.157652 -120.371329 353 11017ft 176kts
24-Nov-20 11:08 42.205866 -120.376524 353 11018ft 172kts
24-Nov-20 11:09 42.253491 -120.381650 353 11018ft 171kts
24-Nov-20 11:10 42.300407 -120.386690 353 11012ft 159kts
24-Nov-20 11:11 42.341925 -120.391196 352 10995ft 142kts
24-Nov-20 11:12 42.380305 -120.395358 352 10998ft 136kts
24-Nov-20 11:13 42.414571 -120.408821 312 10983ft 131kts
24-Nov-20 11:14 42.443356 -120.431879 25 10968ft 139kts
24-Nov-20 11:15 42.435317 -120.393393 182 10909ft 151kts
24-Nov-20 11:16 42.396141 -120.400743 174 10515ft 139kts
24-Nov-20 11:17 42.359502 -120.399304 183 9665ft 128kts
24-Nov-20 11:18 42.324721 -120.400747 183 8390ft 118kts
24-Nov-20 11:19 42.297456 -120.398908 169 7186ft 96kts
24-Nov-20 11:20 42.271331 -120.398287 185 7001ft 96kts
24-Nov-20 11:21 42.243734 -120.399821 177 6434ft 99kts
24-Nov-20 11:22 42.216661 -120.398592 180 5662ft 89kts
24-Nov-20 11:23 42.190522 -120.399443 180 5209ft 98kts
24-Nov-20 11:24 42.165470 -120.398949 181 4728ft 62kts
24-Nov-20 11:25 42.154320 -120.399101 181 4724ft 10kts
24-Nov-20 11:26 42.154631 -120.402026 294 4724ft 10kts
24-Nov-20 11:27 42.154902 -120.405430 70 4724ft 8kts

Navigation Log

Ident Type
Flight plan parsing failed, navigation log unavailable